PWSweather.com
Personal Weather Stations
Station Observations
PICKERING
North Yorkshire, PickeringGB

North YorkshirePickeringGB

Lat: 54.2494, Lon: -0.7725

Elevation: 192

Station Type: Oregon Scientific WMR100

http://www.yorkshirewalker.co.uk/weather/

High Low Average
Temperature 38.1°F3.4°C 32.9°F0.5°C 35.2°F1.8°C
Dew Point 33.8°F1.0°C 28.4°F-2.0°C 30.3°F-0.9°C
Winds 3.0 mph 4.8 kmh Calm Calm 1.0 mph E1.6 kmh E
Wind Gusts 7.4 mph11.9 kmh -- 2.0 mph3.2 kmh
Humidity 82% 79% 81%
Pressure 29.68 in1005.1 mb 29.53 in1000.0 mb -
Precipitation 0.29 in7.4 mm - -
Hour Temp Dew Point Humidity Winds Wind Gusts Pressure Precip Precip Rate Daily Precip Total
12:00 AM 33.3°F0.7°C 28.4°F-2.0°C 80% 1.8 mph ESE2.9 kmh ESE 3.6 mph5.8 kmh 29.62 in1003.0 mb 0.00 in0.0 mm 0.00 in0.0 mm 0.00 in0.0 mm
12:05 AM 33.4°F0.8°C 28.4°F-2.0°C 80% 1.7 mph ESE2.7 kmh ESE 3.6 mph5.8 kmh 29.62 in1003.0 mb 0.00 in0.0 mm 0.00 in0.0 mm 0.00 in0.0 mm
12:10 AM 33.4°F0.8°C 28.4°F-2.0°C 80% 1.5 mph ESE2.4 kmh ESE 3.8 mph6.1 kmh 29.62 in1003.0 mb 0.00 in0.0 mm 0.00 in0.0 mm 0.00 in0.0 mm
12:15 AM 33.6°F0.9°C 28.4°F-2.0°C 80% 1.2 mph E1.9 kmh E 3.8 mph6.1 kmh 29.62 in1003.0 mb 0.00 in0.0 mm 0.00 in0.0 mm 0.00 in0.0 mm
12:20 AM 33.6°F0.9°C 28.4°F-2.0°C 80% 0.7 mph SE1.1 kmh SE 3.4 mph5.5 kmh 29.62 in1003.0 mb 0.00 in0.0 mm 0.00 in0.0 mm 0.00 in0.0 mm
12:25 AM 33.6°F0.9°C 28.4°F-2.0°C 80% 0.7 mph ESE1.1 kmh ESE 2.5 mph4.0 kmh 29.62 in1003.0 mb 0.00 in0.0 mm 0.00 in0.0 mm 0.00 in0.0 mm
12:30 AM 33.8°F1.0°C 28.4°F-2.0°C 80% 1.0 mph ESE1.6 kmh ESE 3.1 mph5.0 kmh 29.62 in1003.0 mb 0.00 in0.0 mm 0.00 in0.0 mm 0.00 in0.0 mm
12:35 AM 33.8°F1.0°C 28.4°F-2.0°C 80% 1.4 mph E2.3 kmh E 4.3 mph6.9 kmh 29.62 in1003.0 mb 0.00 in0.0 mm 0.00 in0.0 mm 0.00 in0.0 mm
12:40 AM 33.8°F1.0°C 28.4°F-2.0°C 80% 1.3 mph ESE2.1 kmh ESE 4.3 mph6.9 kmh 29.62 in1003.0 mb 0.00 in0.0 mm 0.00 in0.0 mm 0.00 in0.0 mm
12:45 AM 33.8°F1.0°C 28.4°F-2.0°C 80% 0.7 mph SE1.1 kmh SE 2.9 mph4.7 kmh 29.62 in1003.0 mb 0.00 in0.0 mm 0.00 in0.0 mm 0.00 in0.0 mm
12:50 AM 33.8°F1.0°C 28.4°F-2.0°C 80% 1.3 mph ESE2.1 kmh ESE 4.3 mph6.9 kmh 29.62 in1003.0 mb 0.00 in0.0 mm 0.00 in0.0 mm 0.00 in0.0 mm
12:55 AM 33.8°F1.0°C 28.4°F-2.0°C 80% 1.7 mph ESE2.7 kmh ESE 4.3 mph6.9 kmh 29.56 in1001.0 mb 0.00 in0.0 mm 0.00 in0.0 mm 0.00 in0.0 mm
01:00 AM 33.8°F1.0°C 28.4°F-2.0°C 80% 0.9 mph ESE1.4 kmh ESE 2.7 mph4.3 kmh 29.56 in1001.0 mb 0.00 in0.0 mm 0.00 in0.0 mm 0.00 in0.0 mm
01:05 AM 33.8°F1.0°C 28.4°F-2.0°C 80% 0.6 mph ESE1.0 kmh ESE 2.7 mph4.3 kmh 29.56 in1001.0 mb 0.00 in0.0 mm 0.00 in0.0 mm 0.00 in0.0 mm
01:10 AM 34.0°F1.1°C 28.4°F-2.0°C 80% 0.7 mph E1.1 kmh E 2.2 mph3.5 kmh 29.62 in1003.0 mb 0.00 in0.0 mm 0.00 in0.0 mm 0.00 in0.0 mm
01:15 AM 34.0°F1.1°C 28.4°F-2.0°C 80% 0.9 mph ESE1.4 kmh ESE 2.7 mph4.3 kmh 29.62 in1003.0 mb 0.00 in0.0 mm 0.00 in0.0 mm 0.00 in0.0 mm
01:20 AM 33.8°F1.0°C 28.4°F-2.0°C 80% 0.8 mph E1.3 kmh E 2.7 mph4.3 kmh 29.62 in1003.0 mb 0.00 in0.0 mm 0.00 in0.0 mm 0.00 in0.0 mm
01:25 AM 34.0°F1.1°C 28.4°F-2.0°C 80% 0.5 mph ESE0.8 kmh ESE 2.2 mph3.5 kmh 29.62 in1003.0 mb 0.00 in0.0 mm 0.00 in0.0 mm 0.00 in0.0 mm
01:30 AM 34.0°F1.1°C 28.4°F-2.0°C 80% 0.3 mph ESE0.5 kmh ESE 1.6 mph2.6 kmh 29.62 in1003.0 mb 0.00 in0.0 mm 0.00 in0.0 mm 0.00 in0.0 mm
01:35 AM 34.0°F1.1°C 28.4°F-2.0°C 80% 0.7 mph ESE1.1 kmh ESE 2.0 mph3.2 kmh 29.62 in1003.0 mb 0.00 in0.0 mm 0.00 in0.0 mm 0.00 in0.0 mm
01:40 AM 34.0°F1.1°C 28.4°F-2.0°C 80% 1.2 mph E1.9 kmh E 3.6 mph5.8 kmh 29.59 in1002.0 mb 0.00 in0.0 mm 0.00 in0.0 mm 0.00 in0.0 mm
01:45 AM 34.0°F1.1°C 28.4°F-2.0°C 80% 1.0 mph E1.6 kmh E 3.6 mph5.8 kmh 29.59 in1002.0 mb 0.00 in0.0 mm 0.00 in0.0 mm 0.00 in0.0 mm
01:50 AM 34.0°F1.1°C 28.4°F-2.0°C 80% 0.3 mph E0.5 kmh E 2.7 mph4.3 kmh 29.59 in1002.0 mb 0.00 in0.0 mm 0.00 in0.0 mm 0.00 in0.0 mm
01:55 AM 34.0°F1.1°C 28.4°F-2.0°C 80% 0.5 mph SE0.8 kmh SE 2.5 mph4.0 kmh 29.59 in1002.0 mb 0.00 in0.0 mm 0.00 in0.0 mm 0.00 in0.0 mm
02:00 AM 34.0°F1.1°C 28.4°F-2.0°C 80% 1.0 mph SE1.6 kmh SE 3.4 mph5.5 kmh 29.59 in1002.0 mb 0.00 in0.0 mm 0.00 in0.0 mm 0.00 in0.0 mm
02:05 AM 34.0°F1.1°C 28.4°F-2.0°C 80% 1.3 mph SE2.1 kmh SE 3.4 mph5.5 kmh 29.59 in1002.0 mb 0.00 in0.0 mm 0.00 in0.0 mm 0.00 in0.0 mm
02:10 AM 34.0°F1.1°C 28.4°F-2.0°C 80% 1.2 mph ESE1.9 kmh ESE 2.7 mph4.3 kmh 29.59 in1002.0 mb 0.00 in0.0 mm 0.00 in0.0 mm 0.00 in0.0 mm
02:15 AM 33.8°F1.0°C 28.4°F-2.0°C 80% 0.7 mph ENE1.1 kmh ENE 2.0 mph3.2 kmh 29.59 in1002.0 mb 0.00 in0.0 mm 0.00 in0.0 mm 0.00 in0.0 mm
02:20 AM 33.8°F1.0°C 28.4°F-2.0°C 80% 1.0 mph ESE1.6 kmh ESE 2.5 mph4.0 kmh 29.59 in1002.0 mb 0.00 in0.0 mm 0.00 in0.0 mm 0.00 in0.0 mm
02:25 AM 33.8°F1.0°C 28.4°F-2.0°C 80% 0.7 mph SE1.1 kmh SE 2.5 mph4.0 kmh 29.59 in1002.0 mb 0.00 in0.0 mm 0.00 in0.0 mm 0.00 in0.0 mm
02:30 AM 33.8°F1.0°C 28.4°F-2.0°C 80% 0.5 mph E0.8 kmh E 1.6 mph2.6 kmh 29.59 in1002.0 mb 0.00 in0.0 mm 0.00 in0.0 mm 0.00 in0.0 mm
02:35 AM 33.8°F1.0°C 28.4°F-2.0°C 80% 0.9 mph ESE1.4 kmh ESE 2.2 mph3.5 kmh 29.59 in1002.0 mb 0.00 in0.0 mm 0.00 in0.0 mm 0.00 in0.0 mm
02:40 AM 33.6°F0.9°C 28.4°F-2.0°C 80% 1.1 mph SE1.8 kmh SE 2.7 mph4.3 kmh 29.59 in1002.0 mb 0.00 in0.0 mm 0.00 in0.0 mm 0.00 in0.0 mm
02:45 AM 33.6°F0.9°C 28.4°F-2.0°C 80% 1.1 mph ESE1.8 kmh ESE 3.8 mph6.1 kmh 29.59 in1002.0 mb 0.00 in0.0 mm 0.00 in0.0 mm 0.00 in0.0 mm
02:50 AM 33.6°F0.9°C 28.4°F-2.0°C 81% 0.7 mph ESE1.1 kmh ESE 3.8 mph6.1 kmh 29.59 in1002.0 mb 0.00 in0.0 mm 0.00 in0.0 mm 0.00 in0.0 mm
02:55 AM 33.6°F0.9°C 28.4°F-2.0°C 81% 0.7 mph ESE1.1 kmh ESE 2.2 mph3.5 kmh 29.59 in1002.0 mb 0.00 in0.0 mm 0.00 in0.0 mm 0.00 in0.0 mm
03:00 AM 33.6°F0.9°C 28.4°F-2.0°C 81% 1.0 mph ESE1.6 kmh ESE 2.5 mph4.0 kmh 29.59 in1002.0 mb 0.00 in0.0 mm 0.00 in0.0 mm 0.00 in0.0 mm
03:05 AM 33.8°F1.0°C 28.4°F-2.0°C 81% 1.0 mph ESE1.6 kmh ESE 2.5 mph4.0 kmh 29.59 in1002.0 mb 0.00 in0.0 mm 0.00 in0.0 mm 0.00 in0.0 mm
03:10 AM 33.8°F1.0°C 28.4°F-2.0°C 81% 1.3 mph E2.1 kmh E 2.5 mph4.0 kmh 29.59 in1002.0 mb 0.00 in0.0 mm 0.00 in0.0 mm 0.00 in0.0 mm
03:15 AM 33.8°F1.0°C 28.4°F-2.0°C 81% 1.2 mph E1.9 kmh E 3.1 mph5.0 kmh 29.59 in1002.0 mb 0.00 in0.0 mm 0.00 in0.0 mm 0.00 in0.0 mm
03:20 AM 33.4°F0.8°C 28.4°F-2.0°C 81% 1.9 mph ESE3.1 kmh ESE 3.4 mph5.5 kmh 29.59 in1002.0 mb 0.00 in0.0 mm 0.00 in0.0 mm 0.00 in0.0 mm
03:25 AM 33.3°F0.7°C 28.4°F-2.0°C 81% 1.6 mph SE2.6 kmh SE 3.4 mph5.5 kmh 29.59 in1002.0 mb 0.00 in0.0 mm 0.00 in0.0 mm 0.00 in0.0 mm
03:30 AM 33.3°F0.7°C 28.4°F-2.0°C 81% 0.4 mph SE0.6 kmh SE 2.2 mph3.5 kmh 29.59 in1002.0 mb 0.00 in0.0 mm 0.00 in0.0 mm 0.00 in0.0 mm
03:35 AM 33.1°F0.6°C 28.4°F-2.0°C 81% 0.2 mph E0.3 kmh E 2.0 mph3.2 kmh 29.59 in1002.0 mb 0.00 in0.0 mm 0.00 in0.0 mm 0.00 in0.0 mm
03:40 AM 33.1°F0.6°C 28.4°F-2.0°C 81% 0.3 mph E0.5 kmh E 2.0 mph3.2 kmh 29.59 in1002.0 mb 0.06 in1.5 mm 0.72 in18.3 mm 0.06 in1.5 mm
03:45 AM 33.3°F0.7°C 28.4°F-2.0°C 81% 1.0 mph ESE1.6 kmh ESE 3.4 mph5.5 kmh 29.59 in1002.0 mb 0.06 in1.5 mm 0.00 in0.0 mm 0.06 in1.5 mm
03:50 AM 33.3°F0.7°C 28.4°F-2.0°C 81% 1.0 mph ESE1.6 kmh ESE 3.4 mph5.5 kmh 29.59 in1002.0 mb 0.06 in1.5 mm 0.00 in0.0 mm 0.06 in1.5 mm
03:55 AM 33.3°F0.7°C 28.4°F-2.0°C 81% 0.4 mph ESE0.6 kmh ESE 1.6 mph2.6 kmh 29.59 in1002.0 mb 0.06 in1.5 mm 0.00 in0.0 mm 0.06 in1.5 mm
04:00 AM 33.3°F0.7°C 28.4°F-2.0°C 81% 0.7 mph SE1.1 kmh SE 1.6 mph2.6 kmh 29.59 in1002.0 mb 0.06 in1.5 mm 0.00 in0.0 mm 0.06 in1.5 mm
04:05 AM 33.1°F0.6°C 28.4°F-2.0°C 81% 0.5 mph SE0.8 kmh SE 1.3 mph2.1 kmh 29.59 in1002.0 mb 0.06 in1.5 mm 0.00 in0.0 mm 0.06 in1.5 mm
04:10 AM 33.1°F0.6°C 28.4°F-2.0°C 81% 0.5 mph SE0.8 kmh SE 1.3 mph2.1 kmh 29.59 in1002.0 mb 0.06 in1.5 mm 0.00 in0.0 mm 0.06 in1.5 mm
04:15 AM 33.1°F0.6°C 28.4°F-2.0°C 81% 0.3 mph SE0.5 kmh SE 1.1 mph1.8 kmh 29.59 in1002.0 mb 0.06 in1.5 mm 0.00 in0.0 mm 0.06 in1.5 mm
04:20 AM 32.9°F0.5°C 28.4°F-2.0°C 81% 0.4 mph SE0.6 kmh SE 1.1 mph1.8 kmh 29.59 in1002.0 mb 0.06 in1.5 mm 0.00 in0.0 mm 0.06 in1.5 mm
04:25 AM 33.1°F0.6°C 28.4°F-2.0°C 81% 0.7 mph ESE1.1 kmh ESE 1.1 mph1.8 kmh 29.59 in1002.0 mb 0.06 in1.5 mm 0.00 in0.0 mm 0.06 in1.5 mm
04:30 AM 33.1°F0.6°C 28.4°F-2.0°C 81% 0.8 mph ESE1.3 kmh ESE 1.6 mph2.6 kmh 29.59 in1002.0 mb 0.06 in1.5 mm 0.00 in0.0 mm 0.06 in1.5 mm
04:35 AM 33.1°F0.6°C 28.4°F-2.0°C 81% 0.6 mph E1.0 kmh E 1.6 mph2.6 kmh 29.59 in1002.0 mb 0.06 in1.5 mm 0.00 in0.0 mm 0.06 in1.5 mm
04:40 AM 33.3°F0.7°C 28.4°F-2.0°C 81% 0.8 mph ESE1.3 kmh ESE 2.5 mph4.0 kmh 29.59 in1002.0 mb 0.00 in0.0 mm 0.00 in0.0 mm 0.06 in1.5 mm
04:45 AM 33.3°F0.7°C 28.4°F-2.0°C 81% 1.1 mph ESE1.8 kmh ESE 2.5 mph4.0 kmh 29.59 in1002.0 mb 0.00 in0.0 mm 0.00 in0.0 mm 0.06 in1.5 mm
04:50 AM 33.3°F0.7°C 28.4°F-2.0°C 82% 1.0 mph ESE1.6 kmh ESE 2.5 mph4.0 kmh 29.59 in1002.0 mb 0.00 in0.0 mm 0.00 in0.0 mm 0.06 in1.5 mm
04:55 AM 33.3°F0.7°C 28.4°F-2.0°C 81% 0.6 mph ESE1.0 kmh ESE 2.2 mph3.5 kmh 29.59 in1002.0 mb 0.00 in0.0 mm 0.00 in0.0 mm 0.06 in1.5 mm
05:00 AM 33.1°F0.6°C 28.4°F-2.0°C 81% 0.7 mph E1.1 kmh E 2.9 mph4.7 kmh 29.59 in1002.0 mb 0.00 in0.0 mm 0.00 in0.0 mm 0.06 in1.5 mm
05:05 AM 33.1°F0.6°C 28.4°F-2.0°C 82% 0.7 mph E1.1 kmh E 2.9 mph4.7 kmh 29.59 in1002.0 mb 0.00 in0.0 mm 0.00 in0.0 mm 0.06 in1.5 mm
05:10 AM 33.1°F0.6°C 28.4°F-2.0°C 82% 0.4 mph ESE0.6 kmh ESE 1.6 mph2.6 kmh 29.56 in1001.0 mb 0.00 in0.0 mm 0.00 in0.0 mm 0.06 in1.5 mm
05:15 AM 33.1°F0.6°C 28.4°F-2.0°C 82% 0.6 mph SE1.0 kmh SE 1.6 mph2.6 kmh 29.56 in1001.0 mb 0.00 in0.0 mm 0.00 in0.0 mm 0.06 in1.5 mm
05:20 AM 33.1°F0.6°C 28.4°F-2.0°C 82% 0.5 mph SE0.8 kmh SE 1.3 mph2.1 kmh 29.56 in1001.0 mb 0.00 in0.0 mm 0.00 in0.0 mm 0.06 in1.5 mm
05:25 AM 33.1°F0.6°C 28.4°F-2.0°C 82% 0.2 mph E0.3 kmh E 0.9 mph1.4 kmh 29.56 in1001.0 mb 0.00 in0.0 mm 0.00 in0.0 mm 0.06 in1.5 mm
05:30 AM 32.9°F0.5°C 28.4°F-2.0°C 82% Calm Calm -- 29.56 in1001.0 mb 0.00 in0.0 mm 0.00 in0.0 mm 0.06 in1.5 mm
05:35 AM 32.9°F0.5°C 28.4°F-2.0°C 82% Calm Calm -- 29.56 in1001.0 mb 0.00 in0.0 mm 0.00 in0.0 mm 0.06 in1.5 mm
05:40 AM 32.9°F0.5°C 28.4°F-2.0°C 82% 0.1 mph E0.2 kmh E 0.9 mph1.4 kmh 29.56 in1001.0 mb 0.00 in0.0 mm 0.00 in0.0 mm 0.06 in1.5 mm
05:45 AM 32.9°F0.5°C 28.4°F-2.0°C 82% 0.1 mph E0.2 kmh E 0.9 mph1.4 kmh 29.56 in1001.0 mb 0.00 in0.0 mm 0.00 in0.0 mm 0.06 in1.5 mm
05:50 AM 32.9°F0.5°C 28.4°F-2.0°C 82% 0.1 mph E0.2 kmh E 1.1 mph1.8 kmh 29.56 in1001.0 mb 0.00 in0.0 mm 0.00 in0.0 mm 0.06 in1.5 mm
05:55 AM 33.1°F0.6°C 28.4°F-2.0°C 82% 0.1 mph E0.2 kmh E 1.1 mph1.8 kmh 29.56 in1001.0 mb 0.00 in0.0 mm 0.00 in0.0 mm 0.06 in1.5 mm
06:00 AM 33.1°F0.6°C 28.4°F-2.0°C 82% Calm Calm -- 29.56 in1001.0 mb 0.00 in0.0 mm 0.00 in0.0 mm 0.06 in1.5 mm
06:05 AM 33.1°F0.6°C 28.4°F-2.0°C 82% 0.2 mph SSE0.3 kmh SSE 1.3 mph2.1 kmh 29.56 in1001.0 mb 0.00 in0.0 mm 0.00 in0.0 mm 0.06 in1.5 mm
06:10 AM 33.3°F0.7°C 28.4°F-2.0°C 82% 0.3 mph SE0.5 kmh SE 1.3 mph2.1 kmh 29.56 in1001.0 mb 0.00 in0.0 mm 0.00 in0.0 mm 0.06 in1.5 mm
06:15 AM 33.3°F0.7°C 28.4°F-2.0°C 82% 0.2 mph SE0.3 kmh SE 1.3 mph2.1 kmh 29.56 in1001.0 mb 0.00 in0.0 mm 0.00 in0.0 mm 0.06 in1.5 mm
06:20 AM 33.4°F0.8°C 30.2°F-1.0°C 82% 0.3 mph SE0.5 kmh SE 0.9 mph1.4 kmh 29.56 in1001.0 mb 0.00 in0.0 mm 0.00 in0.0 mm 0.06 in1.5 mm
06:25 AM 33.4°F0.8°C 30.2°F-1.0°C 82% 0.3 mph SE0.5 kmh SE 0.9 mph1.4 kmh 29.56 in1001.0 mb 0.00 in0.0 mm 0.00 in0.0 mm 0.06 in1.5 mm
06:30 AM 33.4°F0.8°C 30.2°F-1.0°C 82% 0.1 mph SE0.2 kmh SE 0.9 mph1.4 kmh 29.56 in1001.0 mb 0.00 in0.0 mm 0.00 in0.0 mm 0.06 in1.5 mm
06:35 AM 33.8°F1.0°C 30.2°F-1.0°C 82% 0.3 mph SE0.5 kmh SE 1.6 mph2.6 kmh 29.56 in1001.0 mb 0.00 in0.0 mm 0.00 in0.0 mm 0.06 in1.5 mm
06:40 AM 33.8°F1.0°C 30.2°F-1.0°C 82% 0.3 mph SSE0.5 kmh SSE 1.6 mph2.6 kmh 29.56 in1001.0 mb 0.00 in0.0 mm 0.00 in0.0 mm 0.06 in1.5 mm
06:45 AM 33.8°F1.0°C 30.2°F-1.0°C 82% Calm Calm -- 29.56 in1001.0 mb 0.00 in0.0 mm 0.00 in0.0 mm 0.06 in1.5 mm
06:50 AM 33.8°F1.0°C 30.2°F-1.0°C 82% 0.5 mph ESE0.8 kmh ESE 2.2 mph3.5 kmh 29.56 in1001.0 mb 0.00 in0.0 mm 0.00 in0.0 mm 0.06 in1.5 mm
06:55 AM 34.0°F1.1°C 30.2°F-1.0°C 82% 1.2 mph SE1.9 kmh SE 2.9 mph4.7 kmh 29.56 in1001.0 mb 0.00 in0.0 mm 0.00 in0.0 mm 0.06 in1.5 mm
07:00 AM 34.0°F1.1°C 30.2°F-1.0°C 82% 0.7 mph SE1.1 kmh SE 2.9 mph4.7 kmh 29.56 in1001.0 mb 0.00 in0.0 mm 0.00 in0.0 mm 0.06 in1.5 mm
07:05 AM 34.0°F1.1°C 30.2°F-1.0°C 82% 0.3 mph SSE0.5 kmh SSE 1.6 mph2.6 kmh 29.56 in1001.0 mb 0.00 in0.0 mm 0.00 in0.0 mm 0.06 in1.5 mm
07:10 AM 34.0°F1.1°C 30.2°F-1.0°C 82% 0.4 mph SE0.6 kmh SE 1.6 mph2.6 kmh 29.56 in1001.0 mb 0.00 in0.0 mm 0.00 in0.0 mm 0.06 in1.5 mm
07:15 AM 34.0°F1.1°C 30.2°F-1.0°C 82% 0.1 mph ESE0.2 kmh ESE 0.9 mph1.4 kmh 29.56 in1001.0 mb 0.00 in0.0 mm 0.00 in0.0 mm 0.06 in1.5 mm
07:20 AM 34.0°F1.1°C 30.2°F-1.0°C 82% 0.1 mph SE0.2 kmh SE 0.9 mph1.4 kmh 29.56 in1001.0 mb 0.00 in0.0 mm 0.00 in0.0 mm 0.06 in1.5 mm
07:25 AM 34.0°F1.1°C 30.2°F-1.0°C 82% 0.1 mph SE0.2 kmh SE 0.9 mph1.4 kmh 29.56 in1001.0 mb 0.00 in0.0 mm 0.00 in0.0 mm 0.06 in1.5 mm
07:30 AM 33.8°F1.0°C 30.2°F-1.0°C 82% 0.1 mph SSE0.2 kmh SSE 0.9 mph1.4 kmh 29.56 in1001.0 mb 0.00 in0.0 mm 0.00 in0.0 mm 0.06 in1.5 mm
07:35 AM 33.8°F1.0°C 30.2°F-1.0°C 82% 0.3 mph ESE0.5 kmh ESE 1.3 mph2.1 kmh 29.56 in1001.0 mb 0.00 in0.0 mm 0.00 in0.0 mm 0.06 in1.5 mm
07:40 AM 34.0°F1.1°C 30.2°F-1.0°C 82% 0.2 mph E0.3 kmh E 1.3 mph2.1 kmh 29.56 in1001.0 mb 0.00 in0.0 mm 0.00 in0.0 mm 0.06 in1.5 mm
07:45 AM 34.0°F1.1°C 30.2°F-1.0°C 82% 0.4 mph E0.6 kmh E 1.1 mph1.8 kmh 29.56 in1001.0 mb 0.00 in0.0 mm 0.00 in0.0 mm 0.06 in1.5 mm
07:50 AM 33.8°F1.0°C 30.2°F-1.0°C 82% 0.6 mph E1.0 kmh E 1.6 mph2.6 kmh 29.56 in1001.0 mb 0.00 in0.0 mm 0.00 in0.0 mm 0.06 in1.5 mm
07:55 AM 34.0°F1.1°C 30.2°F-1.0°C 82% 0.5 mph ESE0.8 kmh ESE 2.5 mph4.0 kmh 29.56 in1001.0 mb 0.06 in1.5 mm 0.72 in18.3 mm 0.11 in2.8 mm
08:00 AM 34.2°F1.2°C 30.2°F-1.0°C 82% 0.6 mph SE1.0 kmh SE 2.5 mph4.0 kmh 29.56 in1001.0 mb 0.06 in1.5 mm 0.00 in0.0 mm 0.11 in2.8 mm
08:05 AM 34.2°F1.2°C 30.2°F-1.0°C 82% 0.5 mph SE0.8 kmh SE 1.6 mph2.6 kmh 29.56 in1001.0 mb 0.06 in1.5 mm 0.00 in0.0 mm 0.11 in2.8 mm
08:10 AM 34.2°F1.2°C 30.2°F-1.0°C 82% 0.9 mph SE1.4 kmh SE 2.5 mph4.0 kmh 29.59 in1002.0 mb 0.06 in1.5 mm 0.00 in0.0 mm 0.11 in2.8 mm
08:15 AM 34.2°F1.2°C 30.2°F-1.0°C 81% 1.0 mph SE1.6 kmh SE 2.7 mph4.3 kmh 29.59 in1002.0 mb 0.06 in1.5 mm 0.00 in0.0 mm 0.11 in2.8 mm
08:20 AM 34.2°F1.2°C 30.2°F-1.0°C 81% 0.5 mph SE0.8 kmh SE 2.7 mph4.3 kmh 29.59 in1002.0 mb 0.06 in1.5 mm 0.00 in0.0 mm 0.11 in2.8 mm
08:25 AM 34.2°F1.2°C 30.2°F-1.0°C 81% 0.1 mph SE0.2 kmh SE 0.9 mph1.4 kmh 29.59 in1002.0 mb 0.06 in1.5 mm 0.00 in0.0 mm 0.11 in2.8 mm
08:30 AM 34.2°F1.2°C 30.2°F-1.0°C 81% 0.7 mph E1.1 kmh E 2.2 mph3.5 kmh 29.59 in1002.0 mb 0.06 in1.5 mm 0.00 in0.0 mm 0.11 in2.8 mm
08:35 AM 34.2°F1.2°C 30.2°F-1.0°C 81% 0.9 mph E1.4 kmh E 2.2 mph3.5 kmh 29.59 in1002.0 mb 0.06 in1.5 mm 0.00 in0.0 mm 0.11 in2.8 mm
08:40 AM 34.2°F1.2°C 30.2°F-1.0°C 81% 0.5 mph E0.8 kmh E 1.6 mph2.6 kmh 29.59 in1002.0 mb 0.06 in1.5 mm 0.00 in0.0 mm 0.11 in2.8 mm
08:45 AM 34.2°F1.2°C 30.2°F-1.0°C 81% 0.6 mph SE1.0 kmh SE 1.6 mph2.6 kmh 29.59 in1002.0 mb 0.06 in1.5 mm 0.00 in0.0 mm 0.11 in2.8 mm
08:50 AM 34.2°F1.2°C 30.2°F-1.0°C 81% 0.8 mph ESE1.3 kmh ESE 2.2 mph3.5 kmh 29.59 in1002.0 mb 0.06 in1.5 mm 0.00 in0.0 mm 0.11 in2.8 mm
08:55 AM 34.3°F1.3°C 30.2°F-1.0°C 81% 0.7 mph E1.1 kmh E 2.2 mph3.5 kmh 29.59 in1002.0 mb 0.00 in0.0 mm 0.00 in0.0 mm 0.11 in2.8 mm
09:00 AM 34.3°F1.3°C 30.2°F-1.0°C 81% 0.8 mph E1.3 kmh E 4.0 mph6.4 kmh 29.59 in1002.0 mb 0.00 in0.0 mm 0.00 in0.0 mm 0.11 in2.8 mm
09:05 AM 34.3°F1.3°C 30.2°F-1.0°C 81% 0.8 mph E1.3 kmh E 4.0 mph6.4 kmh 29.59 in1002.0 mb 0.00 in0.0 mm 0.00 in0.0 mm 0.11 in2.8 mm
09:10 AM 34.5°F1.4°C 30.2°F-1.0°C 81% 0.9 mph SE1.4 kmh SE 2.9 mph4.7 kmh 29.56 in1001.0 mb 0.00 in0.0 mm 0.00 in0.0 mm 0.11 in2.8 mm
09:15 AM 34.5°F1.4°C 30.2°F-1.0°C 81% 1.5 mph SE2.4 kmh SE 3.8 mph6.1 kmh 29.56 in1001.0 mb 0.00 in0.0 mm 0.00 in0.0 mm 0.11 in2.8 mm
09:20 AM 34.7°F1.5°C 30.2°F-1.0°C 81% 1.8 mph SE2.9 kmh SE 3.8 mph6.1 kmh 29.56 in1001.0 mb 0.00 in0.0 mm 0.00 in0.0 mm 0.11 in2.8 mm
09:25 AM 34.7°F1.5°C 30.2°F-1.0°C 81% 1.4 mph ESE2.3 kmh ESE 3.8 mph6.1 kmh 29.59 in1002.0 mb 0.00 in0.0 mm 0.00 in0.0 mm 0.11 in2.8 mm
09:30 AM 34.7°F1.5°C 30.2°F-1.0°C 81% 1.3 mph SE2.1 kmh SE 3.1 mph5.0 kmh 29.59 in1002.0 mb 0.00 in0.0 mm 0.00 in0.0 mm 0.11 in2.8 mm
09:35 AM 34.9°F1.6°C 30.2°F-1.0°C 80% 1.6 mph SE2.6 kmh SE 4.3 mph6.9 kmh 29.59 in1002.0 mb 0.00 in0.0 mm 0.00 in0.0 mm 0.11 in2.8 mm
09:40 AM 34.9°F1.6°C 30.2°F-1.0°C 80% 1.1 mph SE1.8 kmh SE 4.3 mph6.9 kmh 29.59 in1002.0 mb 0.00 in0.0 mm 0.00 in0.0 mm 0.11 in2.8 mm
09:45 AM 34.9°F1.6°C 30.2°F-1.0°C 80% 0.5 mph SE0.8 kmh SE 1.6 mph2.6 kmh 29.59 in1002.0 mb 0.00 in0.0 mm 0.00 in0.0 mm 0.11 in2.8 mm
09:50 AM 34.9°F1.6°C 30.2°F-1.0°C 81% 0.6 mph SE1.0 kmh SE 2.2 mph3.5 kmh 29.59 in1002.0 mb 0.00 in0.0 mm 0.00 in0.0 mm 0.11 in2.8 mm
09:55 AM 34.9°F1.6°C 30.2°F-1.0°C 81% 0.7 mph ESE1.1 kmh ESE 3.6 mph5.8 kmh 29.59 in1002.0 mb 0.06 in1.5 mm 0.72 in18.3 mm 0.17 in4.3 mm
10:00 AM 34.9°F1.6°C 30.2°F-1.0°C 81% 0.4 mph E0.6 kmh E 3.6 mph5.8 kmh 29.59 in1002.0 mb 0.06 in1.5 mm 0.00 in0.0 mm 0.17 in4.3 mm
10:05 AM 34.9°F1.6°C 30.2°F-1.0°C 81% 0.6 mph E1.0 kmh E 3.8 mph6.1 kmh 29.59 in1002.0 mb 0.06 in1.5 mm 0.00 in0.0 mm 0.17 in4.3 mm
10:10 AM 35.1°F1.7°C 30.2°F-1.0°C 81% 0.8 mph E1.3 kmh E 3.8 mph6.1 kmh 29.59 in1002.0 mb 0.06 in1.5 mm 0.00 in0.0 mm 0.17 in4.3 mm
10:15 AM 35.1°F1.7°C 30.2°F-1.0°C 81% 0.4 mph ESE0.6 kmh ESE 2.0 mph3.2 kmh 29.59 in1002.0 mb 0.06 in1.5 mm 0.00 in0.0 mm 0.17 in4.3 mm
10:20 AM 35.1°F1.7°C 30.2°F-1.0°C 81% 0.3 mph SSE0.5 kmh SSE 2.0 mph3.2 kmh 29.59 in1002.0 mb 0.06 in1.5 mm 0.00 in0.0 mm 0.17 in4.3 mm
10:25 AM 35.1°F1.7°C 30.2°F-1.0°C 81% 0.3 mph SE0.5 kmh SE 1.1 mph1.8 kmh 29.62 in1003.0 mb 0.06 in1.5 mm 0.00 in0.0 mm 0.17 in4.3 mm
10:30 AM 35.1°F1.7°C 30.2°F-1.0°C 81% 0.4 mph SE0.6 kmh SE 1.1 mph1.8 kmh 29.62 in1003.0 mb 0.06 in1.5 mm 0.00 in0.0 mm 0.17 in4.3 mm
10:35 AM 35.1°F1.7°C 30.2°F-1.0°C 81% 0.3 mph SE0.5 kmh SE 1.1 mph1.8 kmh 29.62 in1003.0 mb 0.06 in1.5 mm 0.00 in0.0 mm 0.17 in4.3 mm
10:40 AM 35.1°F1.7°C 30.2°F-1.0°C 81% 0.5 mph ESE0.8 kmh ESE 2.5 mph4.0 kmh 29.62 in1003.0 mb 0.06 in1.5 mm 0.00 in0.0 mm 0.17 in4.3 mm
10:45 AM 35.1°F1.7°C 30.2°F-1.0°C 81% 0.4 mph E0.6 kmh E 2.5 mph4.0 kmh 29.62 in1003.0 mb 0.06 in1.5 mm 0.00 in0.0 mm 0.17 in4.3 mm
10:50 AM 35.2°F1.8°C 30.2°F-1.0°C 81% 0.8 mph E1.3 kmh E 2.9 mph4.7 kmh 29.62 in1003.0 mb 0.00 in0.0 mm 0.00 in0.0 mm 0.17 in4.3 mm
10:55 AM 35.2°F1.8°C 30.2°F-1.0°C 81% 0.9 mph E1.4 kmh E 2.9 mph4.7 kmh 29.62 in1003.0 mb 0.00 in0.0 mm 0.00 in0.0 mm 0.17 in4.3 mm
11:00 AM 35.2°F1.8°C 30.2°F-1.0°C 81% 0.1 mph SE0.2 kmh SE 1.1 mph1.8 kmh 29.62 in1003.0 mb 0.00 in0.0 mm 0.00 in0.0 mm 0.17 in4.3 mm
11:05 AM 35.2°F1.8°C 30.2°F-1.0°C 81% 0.7 mph SE1.1 kmh SE 2.5 mph4.0 kmh 29.62 in1003.0 mb 0.00 in0.0 mm 0.00 in0.0 mm 0.17 in4.3 mm
11:10 AM 35.2°F1.8°C 30.2°F-1.0°C 81% 1.4 mph SE2.3 kmh SE 2.5 mph4.0 kmh 29.62 in1003.0 mb 0.00 in0.0 mm 0.00 in0.0 mm 0.17 in4.3 mm
11:15 AM 35.4°F1.9°C 30.2°F-1.0°C 81% 1.3 mph E2.1 kmh E 2.5 mph4.0 kmh 29.62 in1003.0 mb 0.00 in0.0 mm 0.00 in0.0 mm 0.17 in4.3 mm
11:20 AM 35.4°F1.9°C 30.2°F-1.0°C 81% 1.1 mph ESE1.8 kmh ESE 2.7 mph4.3 kmh 29.62 in1003.0 mb 0.00 in0.0 mm 0.00 in0.0 mm 0.17 in4.3 mm
11:25 AM 35.6°F2.0°C 30.2°F-1.0°C 81% 1.1 mph SE1.8 kmh SE 2.7 mph4.3 kmh 29.62 in1003.0 mb 0.00 in0.0 mm 0.00 in0.0 mm 0.17 in4.3 mm
11:30 AM 36.0°F2.2°C 30.2°F-1.0°C 81% 1.4 mph E2.3 kmh E 2.7 mph4.3 kmh 29.62 in1003.0 mb 0.07 in1.8 mm 0.84 in21.3 mm 0.24 in6.1 mm
11:35 AM 36.0°F2.2°C 30.2°F-1.0°C 81% 1.8 mph E2.9 kmh E 3.6 mph5.8 kmh 29.62 in1003.0 mb 0.07 in1.8 mm 0.00 in0.0 mm 0.24 in6.1 mm
11:40 AM 36.0°F2.2°C 30.2°F-1.0°C 81% 1.9 mph E3.1 kmh E 3.6 mph5.8 kmh 29.59 in1002.0 mb 0.07 in1.8 mm 0.00 in0.0 mm 0.24 in6.1 mm
11:45 AM 36.1°F2.3°C 32.0°F0.0°C 81% 1.9 mph ESE3.1 kmh ESE 3.8 mph6.1 kmh 29.59 in1002.0 mb 0.07 in1.8 mm 0.00 in0.0 mm 0.24 in6.1 mm
11:50 AM 36.1°F2.3°C 32.0°F0.0°C 80% 2.0 mph SE3.2 kmh SE 3.8 mph6.1 kmh 29.59 in1002.0 mb 0.07 in1.8 mm 0.00 in0.0 mm 0.24 in6.1 mm
11:55 AM 36.3°F2.4°C 32.0°F0.0°C 80% 2.2 mph SSW3.5 kmh SSW 3.1 mph5.0 kmh 29.59 in1002.0 mb 0.07 in1.8 mm 0.00 in0.0 mm 0.24 in6.1 mm
12:00 PM 36.3°F2.4°C 32.0°F0.0°C 80% 2.1 mph SE3.4 kmh SE 3.8 mph6.1 kmh 29.59 in1002.0 mb 0.07 in1.8 mm 0.00 in0.0 mm 0.24 in6.1 mm
12:05 PM 36.5°F2.5°C 32.0°F0.0°C 80% 1.9 mph ESE3.1 kmh ESE 3.8 mph6.1 kmh 29.59 in1002.0 mb 0.07 in1.8 mm 0.00 in0.0 mm 0.24 in6.1 mm
12:10 PM 36.7°F2.6°C 32.0°F0.0°C 81% 1.5 mph ESE2.4 kmh ESE 3.1 mph5.0 kmh 29.59 in1002.0 mb 0.07 in1.8 mm 0.00 in0.0 mm 0.24 in6.1 mm
12:15 PM 36.7°F2.6°C 32.0°F0.0°C 80% 1.6 mph ESE2.6 kmh ESE 3.1 mph5.0 kmh 29.59 in1002.0 mb 0.07 in1.8 mm 0.00 in0.0 mm 0.24 in6.1 mm
12:20 PM 36.9°F2.7°C 32.0°F0.0°C 80% 2.4 mph ESE3.9 kmh ESE 5.4 mph8.7 kmh 29.59 in1002.0 mb 0.07 in1.8 mm 0.00 in0.0 mm 0.24 in6.1 mm
12:25 PM 36.9°F2.7°C 32.0°F0.0°C 80% 3.0 mph ESE4.8 kmh ESE 5.4 mph8.7 kmh 29.59 in1002.0 mb 0.07 in1.8 mm 0.00 in0.0 mm 0.24 in6.1 mm
12:30 PM 36.7°F2.6°C 32.0°F0.0°C 80% 2.4 mph E3.9 kmh E 4.9 mph7.9 kmh 29.59 in1002.0 mb 0.00 in0.0 mm 0.00 in0.0 mm 0.24 in6.1 mm
12:35 PM 36.7°F2.6°C 32.0°F0.0°C 80% 1.9 mph E3.1 kmh E 4.9 mph7.9 kmh 29.59 in1002.0 mb 0.00 in0.0 mm 0.00 in0.0 mm 0.24 in6.1 mm
12:40 PM 36.9°F2.7°C 32.0°F0.0°C 80% 1.0 mph ESE1.6 kmh ESE 3.6 mph5.8 kmh 29.59 in1002.0 mb 0.00 in0.0 mm 0.00 in0.0 mm 0.24 in6.1 mm
12:45 PM 37.0°F2.8°C 32.0°F0.0°C 81% 1.3 mph ESE2.1 kmh ESE 3.6 mph5.8 kmh 29.59 in1002.0 mb 0.00 in0.0 mm 0.00 in0.0 mm 0.24 in6.1 mm
12:50 PM 37.4°F3.0°C 32.0°F0.0°C 80% 1.9 mph SE3.1 kmh SE 4.7 mph7.6 kmh 29.59 in1002.0 mb 0.00 in0.0 mm 0.00 in0.0 mm 0.24 in6.1 mm
12:55 PM 37.8°F3.2°C 33.8°F1.0°C 80% 1.8 mph SE2.9 kmh SE 4.7 mph7.6 kmh 29.59 in1002.0 mb 0.00 in0.0 mm 0.00 in0.0 mm 0.24 in6.1 mm
01:00 PM 37.6°F3.1°C 32.0°F0.0°C 80% 1.7 mph ESE2.7 kmh ESE 3.6 mph5.8 kmh 29.59 in1002.0 mb 0.00 in0.0 mm 0.00 in0.0 mm 0.24 in6.1 mm
01:05 PM 37.6°F3.1°C 32.0°F0.0°C 80% 1.6 mph ESE2.6 kmh ESE 2.9 mph4.7 kmh 29.59 in1002.0 mb 0.00 in0.0 mm 0.00 in0.0 mm 0.24 in6.1 mm
01:10 PM 37.6°F3.1°C 32.0°F0.0°C 80% 1.1 mph SE1.8 kmh SE 2.5 mph4.0 kmh 29.59 in1002.0 mb 0.00 in0.0 mm 0.00 in0.0 mm 0.24 in6.1 mm
01:15 PM 37.6°F3.1°C 32.0°F0.0°C 80% 1.2 mph ESE1.9 kmh ESE 3.4 mph5.5 kmh 29.59 in1002.0 mb 0.06 in1.5 mm 0.72 in18.3 mm 0.29 in7.4 mm
01:20 PM 37.8°F3.2°C 33.8°F1.0°C 80% 1.3 mph ESE2.1 kmh ESE 3.4 mph5.5 kmh 29.59 in1002.0 mb 0.06 in1.5 mm 0.00 in0.0 mm 0.29 in7.4 mm
01:25 PM 37.8°F3.2°C 33.8°F1.0°C 80% 1.6 mph ESE2.6 kmh ESE 3.1 mph5.0 kmh 29.59 in1002.0 mb 0.06 in1.5 mm 0.00 in0.0 mm 0.29 in7.4 mm
01:30 PM 37.9°F3.3°C 33.8°F1.0°C 80% 1.8 mph ESE2.9 kmh ESE 3.1 mph5.0 kmh 29.59 in1002.0 mb 0.06 in1.5 mm 0.00 in0.0 mm 0.29 in7.4 mm
01:35 PM 38.1°F3.4°C 33.8°F1.0°C 80% 1.3 mph E2.1 kmh E 2.9 mph4.7 kmh 29.59 in1002.0 mb 0.06 in1.5 mm 0.00 in0.0 mm 0.29 in7.4 mm
01:40 PM 38.1°F3.4°C 33.8°F1.0°C 80% 1.4 mph SE2.3 kmh SE 3.4 mph5.5 kmh 29.59 in1002.0 mb 0.06 in1.5 mm 0.00 in0.0 mm 0.29 in7.4 mm
01:45 PM 37.9°F3.3°C 33.8°F1.0°C 80% 1.3 mph SE2.1 kmh SE 3.4 mph5.5 kmh 29.59 in1002.0 mb 0.06 in1.5 mm 0.00 in0.0 mm 0.29 in7.4 mm
01:50 PM 37.9°F3.3°C 32.0°F0.0°C 79% 0.8 mph SSE1.3 kmh SSE 1.6 mph2.6 kmh 29.59 in1002.0 mb 0.06 in1.5 mm 0.00 in0.0 mm 0.29 in7.4 mm
01:55 PM 37.9°F3.3°C 32.0°F0.0°C 79% 1.0 mph SSE1.6 kmh SSE 3.6 mph5.8 kmh 29.59 in1002.0 mb 0.06 in1.5 mm 0.00 in0.0 mm 0.29 in7.4 mm
02:00 PM 37.9°F3.3°C 32.0°F0.0°C 79% 0.7 mph SSE1.1 kmh SSE 3.6 mph5.8 kmh 29.59 in1002.0 mb 0.06 in1.5 mm 0.00 in0.0 mm 0.29 in7.4 mm
02:05 PM 37.9°F3.3°C 32.0°F0.0°C 79% 0.4 mph ESE0.6 kmh ESE 0.9 mph1.4 kmh 29.59 in1002.0 mb 0.06 in1.5 mm 0.00 in0.0 mm 0.29 in7.4 mm
02:10 PM 37.9°F3.3°C 32.0°F0.0°C 79% 0.9 mph SE1.4 kmh SE 2.7 mph4.3 kmh 29.59 in1002.0 mb 0.06 in1.5 mm 0.00 in0.0 mm 0.29 in7.4 mm
02:15 PM 37.9°F3.3°C 33.8°F1.0°C 80% 0.8 mph SE1.3 kmh SE 2.7 mph4.3 kmh 29.59 in1002.0 mb 0.00 in0.0 mm 0.00 in0.0 mm 0.29 in7.4 mm
02:20 PM 37.8°F3.2°C 33.8°F1.0°C 80% 0.7 mph SE1.1 kmh SE 1.6 mph2.6 kmh 29.59 in1002.0 mb 0.00 in0.0 mm 0.00 in0.0 mm 0.29 in7.4 mm
02:25 PM 37.9°F3.3°C 33.8°F1.0°C 80% 1.2 mph ESE1.9 kmh ESE 3.4 mph5.5 kmh 29.59 in1002.0 mb 0.00 in0.0 mm 0.00 in0.0 mm 0.29 in7.4 mm
02:30 PM 37.9°F3.3°C 33.8°F1.0°C 80% 1.2 mph ESE1.9 kmh ESE 3.4 mph5.5 kmh 29.59 in1002.0 mb 0.00 in0.0 mm 0.00 in0.0 mm 0.29 in7.4 mm
02:35 PM 37.9°F3.3°C 33.8°F1.0°C 80% 0.7 mph E1.1 kmh E 1.3 mph2.1 kmh 29.59 in1002.0 mb 0.00 in0.0 mm 0.00 in0.0 mm 0.29 in7.4 mm
02:40 PM 37.9°F3.3°C 33.8°F1.0°C 80% 0.6 mph E1.0 kmh E 1.3 mph2.1 kmh 29.59 in1002.0 mb 0.00 in0.0 mm 0.00 in0.0 mm 0.29 in7.4 mm
02:45 PM 37.9°F3.3°C 33.8°F1.0°C 80% 0.8 mph ESE1.3 kmh ESE 2.0 mph3.2 kmh 29.59 in1002.0 mb 0.00 in0.0 mm 0.00 in0.0 mm 0.29 in7.4 mm
02:50 PM 37.9°F3.3°C 33.8°F1.0°C 80% 0.9 mph SE1.4 kmh SE 2.0 mph3.2 kmh 29.59 in1002.0 mb 0.00 in0.0 mm 0.00 in0.0 mm 0.29 in7.4 mm
02:55 PM 37.9°F3.3°C 33.8°F1.0°C 80% 0.5 mph SE0.8 kmh SE 2.0 mph3.2 kmh 29.59 in1002.0 mb 0.00 in0.0 mm 0.00 in0.0 mm 0.29 in7.4 mm
03:00 PM 37.8°F3.2°C 33.8°F1.0°C 80% 0.2 mph SE0.3 kmh SE 1.1 mph1.8 kmh 29.59 in1002.0 mb 0.00 in0.0 mm 0.00 in0.0 mm 0.29 in7.4 mm
03:05 PM 37.8°F3.2°C 33.8°F1.0°C 80% 0.2 mph SE0.3 kmh SE 1.1 mph1.8 kmh 29.59 in1002.0 mb 0.00 in0.0 mm 0.00 in0.0 mm 0.29 in7.4 mm
03:10 PM 37.8°F3.2°C 33.8°F1.0°C 80% 0.4 mph ESE0.6 kmh ESE 1.6 mph2.6 kmh 29.56 in1001.0 mb 0.00 in0.0 mm 0.00 in0.0 mm 0.29 in7.4 mm
03:15 PM 37.8°F3.2°C 33.8°F1.0°C 80% 0.7 mph E1.1 kmh E 2.5 mph4.0 kmh 29.56 in1001.0 mb 0.00 in0.0 mm 0.00 in0.0 mm 0.29 in7.4 mm
03:20 PM 37.8°F3.2°C 33.8°F1.0°C 80% 0.7 mph E1.1 kmh E 2.5 mph4.0 kmh 29.56 in1001.0 mb 0.00 in0.0 mm 0.00 in0.0 mm 0.29 in7.4 mm
03:25 PM 37.8°F3.2°C 33.8°F1.0°C 80% 0.8 mph SE1.3 kmh SE 2.7 mph4.3 kmh 29.56 in1001.0 mb 0.00 in0.0 mm 0.00 in0.0 mm 0.29 in7.4 mm
03:30 PM 37.6°F3.1°C 32.0°F0.0°C 80% 1.5 mph E2.4 kmh E 2.9 mph4.7 kmh 29.56 in1001.0 mb 0.00 in0.0 mm 0.00 in0.0 mm 0.29 in7.4 mm
03:35 PM 37.6°F3.1°C 32.0°F0.0°C 80% 1.9 mph E3.1 kmh E 4.0 mph6.4 kmh 29.56 in1001.0 mb 0.00 in0.0 mm 0.00 in0.0 mm 0.29 in7.4 mm
03:40 PM 37.6°F3.1°C 32.0°F0.0°C 80% 1.8 mph E2.9 kmh E 4.0 mph6.4 kmh 29.59 in1002.0 mb 0.00 in0.0 mm 0.00 in0.0 mm 0.29 in7.4 mm
03:45 PM 37.4°F3.0°C 32.0°F0.0°C 80% 1.4 mph E2.3 kmh E 2.5 mph4.0 kmh 29.59 in1002.0 mb 0.00 in0.0 mm 0.00 in0.0 mm 0.29 in7.4 mm
03:50 PM 37.4°F3.0°C 32.0°F0.0°C 80% 1.4 mph E2.3 kmh E 2.7 mph4.3 kmh 29.59 in1002.0 mb 0.00 in0.0 mm 0.00 in0.0 mm 0.29 in7.4 mm
03:55 PM 37.4°F3.0°C 32.0°F0.0°C 80% 1.6 mph E2.6 kmh E 2.7 mph4.3 kmh 29.59 in1002.0 mb 0.00 in0.0 mm 0.00 in0.0 mm 0.29 in7.4 mm
04:00 PM 37.2°F2.9°C 32.0°F0.0°C 80% 1.6 mph ESE2.6 kmh ESE 2.7 mph4.3 kmh 29.59 in1002.0 mb 0.00 in0.0 mm 0.00 in0.0 mm 0.29 in7.4 mm
04:05 PM 37.0°F2.8°C 32.0°F0.0°C 80% 1.6 mph ESE2.6 kmh ESE 2.7 mph4.3 kmh 29.59 in1002.0 mb 0.00 in0.0 mm 0.00 in0.0 mm 0.29 in7.4 mm
04:10 PM 37.0°F2.8°C 32.0°F0.0°C 80% 1.2 mph E1.9 kmh E 2.7 mph4.3 kmh 29.59 in1002.0 mb 0.00 in0.0 mm 0.00 in0.0 mm 0.29 in7.4 mm
04:15 PM 37.0°F2.8°C 32.0°F0.0°C 80% 1.3 mph E2.1 kmh E 2.7 mph4.3 kmh 29.59 in1002.0 mb 0.00 in0.0 mm 0.00 in0.0 mm 0.29 in7.4 mm
04:20 PM 36.9°F2.7°C 32.0°F0.0°C 80% 1.8 mph E2.9 kmh E 3.6 mph5.8 kmh 29.59 in1002.0 mb 0.00 in0.0 mm 0.00 in0.0 mm 0.29 in7.4 mm
04:25 PM 36.9°F2.7°C 32.0°F0.0°C 80% 1.7 mph E2.7 kmh E 3.6 mph5.8 kmh 29.53 in1000.0 mb 0.00 in0.0 mm 0.00 in0.0 mm 0.29 in7.4 mm
04:30 PM 36.7°F2.6°C 32.0°F0.0°C 80% 1.8 mph E2.9 kmh E 3.1 mph5.0 kmh 29.53 in1000.0 mb 0.00 in0.0 mm 0.00 in0.0 mm 0.29 in7.4 mm
04:35 PM 36.7°F2.6°C 32.0°F0.0°C 80% 2.0 mph E3.2 kmh E 3.1 mph5.0 kmh 29.53 in1000.0 mb 0.00 in0.0 mm 0.00 in0.0 mm 0.29 in7.4 mm
04:40 PM 36.7°F2.6°C 32.0°F0.0°C 80% 2.6 mph E4.2 kmh E 3.6 mph5.8 kmh 29.59 in1002.0 mb 0.00 in0.0 mm 0.00 in0.0 mm 0.29 in7.4 mm
04:45 PM 36.3°F2.4°C 32.0°F0.0°C 80% 2.5 mph E4.0 kmh E 3.6 mph5.8 kmh 29.59 in1002.0 mb 0.00 in0.0 mm 0.00 in0.0 mm 0.29 in7.4 mm
04:50 PM 36.0°F2.2°C 30.2°F-1.0°C 80% 1.8 mph E2.9 kmh E 2.7 mph4.3 kmh 29.59 in1002.0 mb 0.00 in0.0 mm 0.00 in0.0 mm 0.29 in7.4 mm
04:55 PM 36.0°F2.2°C 30.2°F-1.0°C 80% 1.3 mph E2.1 kmh E 2.7 mph4.3 kmh 29.59 in1002.0 mb 0.00 in0.0 mm 0.00 in0.0 mm 0.29 in7.4 mm
05:00 PM 36.0°F2.2°C 30.2°F-1.0°C 80% 1.6 mph E2.6 kmh E 2.9 mph4.7 kmh 29.59 in1002.0 mb 0.00 in0.0 mm 0.00 in0.0 mm 0.29 in7.4 mm
05:05 PM 36.0°F2.2°C 30.2°F-1.0°C 80% 2.3 mph E3.7 kmh E 3.6 mph5.8 kmh 29.59 in1002.0 mb 0.00 in0.0 mm 0.00 in0.0 mm 0.29 in7.4 mm
05:10 PM 36.0°F2.2°C 30.2°F-1.0°C 80% 2.0 mph E3.2 kmh E 3.6 mph5.8 kmh 29.59 in1002.0 mb 0.00 in0.0 mm 0.00 in0.0 mm 0.29 in7.4 mm
05:15 PM 36.0°F2.2°C 30.2°F-1.0°C 80% 1.5 mph E2.4 kmh E 3.1 mph5.0 kmh 29.59 in1002.0 mb 0.00 in0.0 mm 0.00 in0.0 mm 0.29 in7.4 mm
05:20 PM 35.8°F2.1°C 30.2°F-1.0°C 80% 2.0 mph E3.2 kmh E 5.8 mph9.3 kmh 29.59 in1002.0 mb 0.00 in0.0 mm 0.00 in0.0 mm 0.29 in7.4 mm
05:25 PM 35.6°F2.0°C 30.2°F-1.0°C 80% 2.1 mph E3.4 kmh E 5.8 mph9.3 kmh 29.62 in1003.0 mb 0.00 in0.0 mm 0.00 in0.0 mm 0.29 in7.4 mm
05:30 PM 35.6°F2.0°C 30.2°F-1.0°C 80% 1.6 mph ESE2.6 kmh ESE 3.4 mph5.5 kmh 29.62 in1003.0 mb 0.00 in0.0 mm 0.00 in0.0 mm 0.29 in7.4 mm
05:35 PM 35.6°F2.0°C 30.2°F-1.0°C 80% 2.8 mph E4.5 kmh E 7.4 mph11.9 kmh 29.62 in1003.0 mb 0.00 in0.0 mm 0.00 in0.0 mm 0.29 in7.4 mm
05:40 PM 35.6°F2.0°C 30.2°F-1.0°C 80% 3.0 mph E4.8 kmh E 7.4 mph11.9 kmh 29.62 in1003.0 mb 0.00 in0.0 mm 0.00 in0.0 mm 0.29 in7.4 mm
05:45 PM 35.8°F2.1°C 30.2°F-1.0°C 80% 2.2 mph E3.5 kmh E 5.6 mph9.0 kmh 29.62 in1003.0 mb 0.00 in0.0 mm 0.00 in0.0 mm 0.29 in7.4 mm
05:50 PM 35.8°F2.1°C 30.2°F-1.0°C 80% 1.4 mph E2.3 kmh E 2.9 mph4.7 kmh 29.62 in1003.0 mb 0.00 in0.0 mm 0.00 in0.0 mm 0.29 in7.4 mm
05:55 PM 36.0°F2.2°C 30.2°F-1.0°C 80% 1.4 mph E2.3 kmh E 4.0 mph6.4 kmh 29.62 in1003.0 mb 0.00 in0.0 mm 0.00 in0.0 mm 0.29 in7.4 mm
06:00 PM 36.0°F2.2°C 30.2°F-1.0°C 80% 1.3 mph ENE2.1 kmh ENE 4.0 mph6.4 kmh 29.62 in1003.0 mb 0.00 in0.0 mm 0.00 in0.0 mm 0.29 in7.4 mm
06:05 PM 36.0°F2.2°C 30.2°F-1.0°C 80% 1.2 mph E1.9 kmh E 2.9 mph4.7 kmh 29.62 in1003.0 mb 0.00 in0.0 mm 0.00 in0.0 mm 0.29 in7.4 mm
06:10 PM 36.0°F2.2°C 30.2°F-1.0°C 80% 1.1 mph E1.8 kmh E 2.2 mph3.5 kmh 29.62 in1003.0 mb 0.00 in0.0 mm 0.00 in0.0 mm 0.29 in7.4 mm
06:15 PM 35.8°F2.1°C 30.2°F-1.0°C 80% 0.4 mph E0.6 kmh E 2.2 mph3.5 kmh 29.62 in1003.0 mb 0.00 in0.0 mm 0.00 in0.0 mm 0.29 in7.4 mm
06:20 PM 35.8°F2.1°C 30.2°F-1.0°C 80% 0.5 mph E0.8 kmh E 3.6 mph5.8 kmh 29.62 in1003.0 mb 0.00 in0.0 mm 0.00 in0.0 mm 0.29 in7.4 mm
06:25 PM 35.8°F2.1°C 30.2°F-1.0°C 80% 0.5 mph E0.8 kmh E 3.6 mph5.8 kmh 29.62 in1003.0 mb 0.00 in0.0 mm 0.00 in0.0 mm 0.29 in7.4 mm
06:30 PM 35.8°F2.1°C 30.2°F-1.0°C 80% Calm Calm -- 29.62 in1003.0 mb 0.00 in0.0 mm 0.00 in0.0 mm 0.29 in7.4 mm
06:35 PM 35.8°F2.1°C 30.2°F-1.0°C 80% 0.1 mph ESE0.2 kmh ESE 1.1 mph1.8 kmh 29.62 in1003.0 mb 0.00 in0.0 mm 0.00 in0.0 mm 0.29 in7.4 mm
06:40 PM 35.8°F2.1°C 30.2°F-1.0°C 80% 0.7 mph ESE1.1 kmh ESE 2.0 mph3.2 kmh 29.62 in1003.0 mb 0.00 in0.0 mm 0.00 in0.0 mm 0.29 in7.4 mm
06:45 PM 35.8°F2.1°C 30.2°F-1.0°C 80% 1.1 mph ESE1.8 kmh ESE 2.0 mph3.2 kmh 29.62 in1003.0 mb 0.00 in0.0 mm 0.00 in0.0 mm 0.29 in7.4 mm
06:50 PM 35.8°F2.1°C 30.2°F-1.0°C 80% 1.1 mph ESE1.8 kmh ESE 2.0 mph3.2 kmh 29.62 in1003.0 mb 0.00 in0.0 mm 0.00 in0.0 mm 0.29 in7.4 mm
06:55 PM 35.8°F2.1°C 30.2°F-1.0°C 80% 1.1 mph E1.8 kmh E 2.9 mph4.7 kmh 29.62 in1003.0 mb 0.00 in0.0 mm 0.00 in0.0 mm 0.29 in7.4 mm
07:00 PM 35.8°F2.1°C 30.2°F-1.0°C 80% 1.3 mph E2.1 kmh E 2.9 mph4.7 kmh 29.62 in1003.0 mb 0.00 in0.0 mm 0.00 in0.0 mm 0.29 in7.4 mm
07:05 PM 35.8°F2.1°C 30.2°F-1.0°C 80% 1.5 mph E2.4 kmh E 2.7 mph4.3 kmh 29.62 in1003.0 mb 0.00 in0.0 mm 0.00 in0.0 mm 0.29 in7.4 mm
07:10 PM 35.8°F2.1°C 30.2°F-1.0°C 80% 1.6 mph E2.6 kmh E 2.9 mph4.7 kmh 29.62 in1003.0 mb 0.00 in0.0 mm 0.00 in0.0 mm 0.29 in7.4 mm
07:15 PM 35.8°F2.1°C 30.2°F-1.0°C 80% 1.4 mph E2.3 kmh E 2.9 mph4.7 kmh 29.62 in1003.0 mb 0.00 in0.0 mm 0.00 in0.0 mm 0.29 in7.4 mm
07:20 PM 35.8°F2.1°C 30.2°F-1.0°C 80% 1.3 mph E2.1 kmh E 2.9 mph4.7 kmh 29.62 in1003.0 mb 0.00 in0.0 mm 0.00 in0.0 mm 0.29 in7.4 mm
07:25 PM 35.8°F2.1°C 30.2°F-1.0°C 80% 1.6 mph E2.6 kmh E 3.1 mph5.0 kmh 29.62 in1003.0 mb 0.00 in0.0 mm 0.00 in0.0 mm 0.29 in7.4 mm
07:30 PM 35.8°F2.1°C 30.2°F-1.0°C 80% 1.8 mph E2.9 kmh E 3.1 mph5.0 kmh 29.62 in1003.0 mb 0.00 in0.0 mm 0.00 in0.0 mm 0.29 in7.4 mm
07:35 PM 35.8°F2.1°C 30.2°F-1.0°C 80% 1.6 mph E2.6 kmh E 3.1 mph5.0 kmh 29.62 in1003.0 mb 0.00 in0.0 mm 0.00 in0.0 mm 0.29 in7.4 mm
07:40 PM 35.8°F2.1°C 30.2°F-1.0°C 80% 1.4 mph E2.3 kmh E 2.7 mph4.3 kmh 29.62 in1003.0 mb 0.00 in0.0 mm 0.00 in0.0 mm 0.29 in7.4 mm
07:45 PM 35.8°F2.1°C 30.2°F-1.0°C 80% 1.0 mph E1.6 kmh E 3.1 mph5.0 kmh 29.62 in1003.0 mb 0.00 in0.0 mm 0.00 in0.0 mm 0.29 in7.4 mm
07:50 PM 36.0°F2.2°C 30.2°F-1.0°C 80% 0.6 mph ESE1.0 kmh ESE 3.1 mph5.0 kmh 29.62 in1003.0 mb 0.00 in0.0 mm 0.00 in0.0 mm 0.29 in7.4 mm
07:55 PM 36.0°F2.2°C 30.2°F-1.0°C 80% 0.4 mph E0.6 kmh E 2.0 mph3.2 kmh 29.62 in1003.0 mb 0.00 in0.0 mm 0.00 in0.0 mm 0.29 in7.4 mm
08:00 PM 35.8°F2.1°C 30.2°F-1.0°C 80% 0.8 mph ENE1.3 kmh ENE 2.0 mph3.2 kmh 29.62 in1003.0 mb 0.00 in0.0 mm 0.00 in0.0 mm 0.29 in7.4 mm
08:05 PM 35.8°F2.1°C 30.2°F-1.0°C 80% 1.2 mph ENE1.9 kmh ENE 2.5 mph4.0 kmh 29.62 in1003.0 mb 0.00 in0.0 mm 0.00 in0.0 mm 0.29 in7.4 mm
08:10 PM 35.8°F2.1°C 30.2°F-1.0°C 80% 0.7 mph E1.1 kmh E 2.5 mph4.0 kmh 29.62 in1003.0 mb 0.00 in0.0 mm 0.00 in0.0 mm 0.29 in7.4 mm
08:15 PM 35.8°F2.1°C 30.2°F-1.0°C 80% 0.3 mph E0.5 kmh E 1.1 mph1.8 kmh 29.62 in1003.0 mb 0.00 in0.0 mm 0.00 in0.0 mm 0.29 in7.4 mm
08:20 PM 35.8°F2.1°C 30.2°F-1.0°C 80% 0.2 mph E0.3 kmh E 1.1 mph1.8 kmh 29.62 in1003.0 mb 0.00 in0.0 mm 0.00 in0.0 mm 0.29 in7.4 mm
08:25 PM 35.8°F2.1°C 30.2°F-1.0°C 80% 0.1 mph E0.2 kmh E 1.1 mph1.8 kmh 29.65 in1004.1 mb 0.00 in0.0 mm 0.00 in0.0 mm 0.29 in7.4 mm
08:30 PM 35.8°F2.1°C 30.2°F-1.0°C 80% Calm Calm -- 29.65 in1004.1 mb 0.00 in0.0 mm 0.00 in0.0 mm 0.29 in7.4 mm
08:35 PM 35.8°F2.1°C 30.2°F-1.0°C 80% 0.1 mph E0.2 kmh E 1.1 mph1.8 kmh 29.65 in1004.1 mb 0.00 in0.0 mm 0.00 in0.0 mm 0.29 in7.4 mm
08:40 PM 35.8°F2.1°C 30.2°F-1.0°C 80% 0.1 mph E0.2 kmh E 1.1 mph1.8 kmh 29.65 in1004.1 mb 0.00 in0.0 mm 0.00 in0.0 mm 0.29 in7.4 mm
08:45 PM 35.8°F2.1°C 30.2°F-1.0°C 80% 0.2 mph ENE0.3 kmh ENE 1.1 mph1.8 kmh 29.65 in1004.1 mb 0.00 in0.0 mm 0.00 in0.0 mm 0.29 in7.4 mm
08:50 PM 35.8°F2.1°C 30.2°F-1.0°C 80% 0.2 mph ENE0.3 kmh ENE 1.1 mph1.8 kmh 29.65 in1004.1 mb 0.00 in0.0 mm 0.00 in0.0 mm 0.29 in7.4 mm
08:55 PM 35.8°F2.1°C 30.2°F-1.0°C 81% 0.1 mph ENE0.2 kmh ENE 1.3 mph2.1 kmh 29.65 in1004.1 mb 0.00 in0.0 mm 0.00 in0.0 mm 0.29 in7.4 mm
09:00 PM 35.8°F2.1°C 30.2°F-1.0°C 81% 0.2 mph ENE0.3 kmh ENE 1.3 mph2.1 kmh 29.65 in1004.1 mb 0.00 in0.0 mm 0.00 in0.0 mm 0.29 in7.4 mm
09:05 PM 35.6°F2.0°C 30.2°F-1.0°C 81% 0.1 mph ENE0.2 kmh ENE 0.9 mph1.4 kmh 29.65 in1004.1 mb 0.00 in0.0 mm 0.00 in0.0 mm 0.29 in7.4 mm
09:10 PM 35.6°F2.0°C 30.2°F-1.0°C 81% 0.4 mph NE0.6 kmh NE 1.3 mph2.1 kmh 29.65 in1004.1 mb 0.00 in0.0 mm 0.00 in0.0 mm 0.29 in7.4 mm
09:15 PM 35.8°F2.1°C 30.2°F-1.0°C 81% 0.4 mph NE0.6 kmh NE 1.3 mph2.1 kmh 29.65 in1004.1 mb 0.00 in0.0 mm 0.00 in0.0 mm 0.29 in7.4 mm
09:20 PM 35.6°F2.0°C 30.2°F-1.0°C 81% 0.1 mph NE0.2 kmh NE 0.9 mph1.4 kmh 29.65 in1004.1 mb 0.00 in0.0 mm 0.00 in0.0 mm 0.29 in7.4 mm
09:25 PM 35.8°F2.1°C 30.2°F-1.0°C 81% 0.2 mph NE0.3 kmh NE 1.1 mph1.8 kmh 29.65 in1004.1 mb 0.00 in0.0 mm 0.00 in0.0 mm 0.29 in7.4 mm
09:30 PM 35.8°F2.1°C 30.2°F-1.0°C 81% 1.0 mph NE1.6 kmh NE 2.0 mph3.2 kmh 29.65 in1004.1 mb 0.00 in0.0 mm 0.00 in0.0 mm 0.29 in7.4 mm
09:35 PM 35.8°F2.1°C 30.2°F-1.0°C 81% 1.4 mph ENE2.3 kmh ENE 2.5 mph4.0 kmh 29.65 in1004.1 mb 0.00 in0.0 mm 0.00 in0.0 mm 0.29 in7.4 mm
09:40 PM 35.8°F2.1°C 30.2°F-1.0°C 81% 1.3 mph ENE2.1 kmh ENE 2.5 mph4.0 kmh 29.65 in1004.1 mb 0.00 in0.0 mm 0.00 in0.0 mm 0.29 in7.4 mm
09:45 PM 35.8°F2.1°C 30.2°F-1.0°C 81% 1.1 mph NE1.8 kmh NE 2.2 mph3.5 kmh 29.65 in1004.1 mb 0.00 in0.0 mm 0.00 in0.0 mm 0.29 in7.4 mm
09:50 PM 35.8°F2.1°C 30.2°F-1.0°C 81% 0.9 mph NE1.4 kmh NE 2.5 mph4.0 kmh 29.65 in1004.1 mb 0.00 in0.0 mm 0.00 in0.0 mm 0.29 in7.4 mm
09:55 PM 35.8°F2.1°C 30.2°F-1.0°C 81% 1.2 mph NE1.9 kmh NE 2.5 mph4.0 kmh 29.65 in1004.1 mb 0.00 in0.0 mm 0.00 in0.0 mm 0.29 in7.4 mm
10:00 PM 35.8°F2.1°C 30.2°F-1.0°C 81% 1.3 mph NE2.1 kmh NE 2.0 mph3.2 kmh 29.65 in1004.1 mb 0.00 in0.0 mm 0.00 in0.0 mm 0.29 in7.4 mm
10:05 PM 35.8°F2.1°C 30.2°F-1.0°C 81% 1.2 mph ENE1.9 kmh ENE 2.0 mph3.2 kmh 29.65 in1004.1 mb 0.00 in0.0 mm 0.00 in0.0 mm 0.29 in7.4 mm
10:10 PM 35.8°F2.1°C 30.2°F-1.0°C 81% 1.1 mph NE1.8 kmh NE 2.0 mph3.2 kmh 29.65 in1004.1 mb 0.00 in0.0 mm 0.00 in0.0 mm 0.29 in7.4 mm
10:15 PM 35.8°F2.1°C 30.2°F-1.0°C 81% 0.3 mph NE0.5 kmh NE 0.9 mph1.4 kmh 29.65 in1004.1 mb 0.00 in0.0 mm 0.00 in0.0 mm 0.29 in7.4 mm
10:20 PM 35.8°F2.1°C 30.2°F-1.0°C 81% Calm Calm -- 29.65 in1004.1 mb 0.00 in0.0 mm 0.00 in0.0 mm 0.29 in7.4 mm
10:25 PM 35.6°F2.0°C 30.2°F-1.0°C 81% Calm Calm -- 29.65 in1004.1 mb 0.00 in0.0 mm 0.00 in0.0 mm 0.29 in7.4 mm
10:30 PM 35.6°F2.0°C 30.2°F-1.0°C 81% 0.2 mph NE0.3 kmh NE 1.6 mph2.6 kmh 29.65 in1004.1 mb 0.00 in0.0 mm 0.00 in0.0 mm 0.29 in7.4 mm
10:35 PM 35.6°F2.0°C 30.2°F-1.0°C 81% 0.2 mph NE0.3 kmh NE 1.6 mph2.6 kmh 29.65 in1004.1 mb 0.00 in0.0 mm 0.00 in0.0 mm 0.29 in7.4 mm
10:40 PM 35.6°F2.0°C 32.0°F0.0°C 82% 0.2 mph NE0.3 kmh NE 1.6 mph2.6 kmh 29.68 in1005.1 mb 0.00 in0.0 mm 0.00 in0.0 mm 0.29 in7.4 mm
10:45 PM 35.6°F2.0°C 32.0°F0.0°C 82% 0.4 mph NE0.6 kmh NE 0.9 mph1.4 kmh 29.68 in1005.1 mb 0.00 in0.0 mm 0.00 in0.0 mm 0.29 in7.4 mm
10:50 PM 35.6°F2.0°C 32.0°F0.0°C 82% 0.4 mph NE0.6 kmh NE 0.9 mph1.4 kmh 29.68 in1005.1 mb 0.00 in0.0 mm 0.00 in0.0 mm 0.29 in7.4 mm
10:55 PM 35.6°F2.0°C 32.0°F0.0°C 82% Calm Calm -- 29.68 in1005.1 mb 0.00 in0.0 mm 0.00 in0.0 mm 0.29 in7.4 mm
11:00 PM 35.6°F2.0°C 32.0°F0.0°C 82% 0.2 mph NE0.3 kmh NE 0.9 mph1.4 kmh 29.68 in1005.1 mb 0.00 in0.0 mm 0.00 in0.0 mm 0.29 in7.4 mm
11:05 PM 35.6°F2.0°C 32.0°F0.0°C 82% 0.3 mph NE0.5 kmh NE 0.9 mph1.4 kmh 29.68 in1005.1 mb 0.00 in0.0 mm 0.00 in0.0 mm 0.29 in7.4 mm
11:10 PM 35.6°F2.0°C 32.0°F0.0°C 82% 0.6 mph NE1.0 kmh NE 1.1 mph1.8 kmh 29.68 in1005.1 mb 0.00 in0.0 mm 0.00 in0.0 mm 0.29 in7.4 mm
11:15 PM 35.6°F2.0°C 32.0°F0.0°C 82% 0.9 mph NE1.4 kmh NE 1.1 mph1.8 kmh 29.68 in1005.1 mb 0.00 in0.0 mm 0.00 in0.0 mm 0.29 in7.4 mm
11:20 PM 35.6°F2.0°C 32.0°F0.0°C 82% 0.6 mph NE1.0 kmh NE 1.1 mph1.8 kmh 29.68 in1005.1 mb 0.00 in0.0 mm 0.00 in0.0 mm 0.29 in7.4 mm
11:25 PM 35.6°F2.0°C 32.0°F0.0°C 82% 0.1 mph NE0.2 kmh NE 1.1 mph1.8 kmh 29.68 in1005.1 mb 0.00 in0.0 mm 0.00 in0.0 mm 0.29 in7.4 mm
11:30 PM 35.6°F2.0°C 32.0°F0.0°C 82% Calm Calm -- 29.68 in1005.1 mb 0.00 in0.0 mm 0.00 in0.0 mm 0.29 in7.4 mm
11:35 PM 35.6°F2.0°C 32.0°F0.0°C 82% 0.1 mph NE0.2 kmh NE 0.9 mph1.4 kmh 29.68 in1005.1 mb 0.00 in0.0 mm 0.00 in0.0 mm 0.29 in7.4 mm
11:40 PM 35.6°F2.0°C 32.0°F0.0°C 82% 0.3 mph NE0.5 kmh NE 1.3 mph2.1 kmh 29.68 in1005.1 mb 0.00 in0.0 mm 0.00 in0.0 mm 0.29 in7.4 mm
11:45 PM 35.6°F2.0°C 32.0°F0.0°C 82% 0.7 mph NE1.1 kmh NE 2.2 mph3.5 kmh 29.68 in1005.1 mb 0.00 in0.0 mm 0.00 in0.0 mm 0.29 in7.4 mm
11:50 PM 35.6°F2.0°C 32.0°F0.0°C 82% 0.7 mph NE1.1 kmh NE 2.2 mph3.5 kmh 29.68 in1005.1 mb 0.00 in0.0 mm 0.00 in0.0 mm 0.29 in7.4 mm
11:55 PM 35.6°F2.0°C 32.0°F0.0°C 82% 0.5 mph NE0.8 kmh NE 2.2 mph3.5 kmh 29.68 in1005.1 mb 0.00 in0.0 mm 0.00 in0.0 mm 0.29 in7.4 mm